sensor_id;sensor_type;location;lat;lon;timestamp;temperature;humidity
21770;DHT22;11046;49.558;8.674;2023-04-03T00:01:49;3.10;95.00
21770;DHT22;11046;49.558;8.674;2023-04-03T00:04:50;3.00;95.10
21770;DHT22;11046;49.558;8.674;2023-04-03T00:07:50;3.00;95.10
21770;DHT22;11046;49.558;8.674;2023-04-03T00:10:51;2.90;95.10
21770;DHT22;11046;49.558;8.674;2023-04-03T00:13:51;2.90;95.20
21770;DHT22;11046;49.558;8.674;2023-04-03T00:16:52;2.80;95.20
21770;DHT22;11046;49.558;8.674;2023-04-03T00:19:52;2.80;95.20
21770;DHT22;11046;49.558;8.674;2023-04-03T00:22:54;2.80;95.20
21770;DHT22;11046;49.558;8.674;2023-04-03T00:25:55;2.70;95.30
21770;DHT22;11046;49.558;8.674;2023-04-03T00:28:55;2.70;95.30
21770;DHT22;11046;49.558;8.674;2023-04-03T00:31:56;2.70;95.20
21770;DHT22;11046;49.558;8.674;2023-04-03T00:34:57;2.60;95.10
21770;DHT22;11046;49.558;8.674;2023-04-03T00:37:57;2.60;95.20
21770;DHT22;11046;49.558;8.674;2023-04-03T00:40:58;2.60;95.30
21770;DHT22;11046;49.558;8.674;2023-04-03T00:43:58;2.50;95.40
21770;DHT22;11046;49.558;8.674;2023-04-03T06:23:09;-0.40;97.80
21770;DHT22;11046;49.558;8.674;2023-04-03T06:26:10;-0.30;98.20
21770;DHT22;11046;49.558;8.674;2023-04-03T06:29:11;-0.10;98.30
21770;DHT22;11046;49.558;8.674;2023-04-03T06:32:12;0.20;98.40
21770;DHT22;11046;49.558;8.674;2023-04-03T06:35:13;0.50;98.50
21770;DHT22;11046;49.558;8.674;2023-04-03T06:38:13;0.90;98.70
21770;DHT22;11046;49.558;8.674;2023-04-03T06:41:14;1.30;98.80
21770;DHT22;11046;49.558;8.674;2023-04-03T06:44:17;1.80;98.90
21770;DHT22;11046;49.558;8.674;2023-04-03T06:47:18;2.20;98.90
21770;DHT22;11046;49.558;8.674;2023-04-03T06:50:18;2.50;98.80
21770;DHT22;11046;49.558;8.674;2023-04-03T06:53:19;2.70;98.80
21770;DHT22;11046;49.558;8.674;2023-04-03T06:56:20;3.10;99.00
21770;DHT22;11046;49.558;8.674;2023-04-03T06:59:21;3.40;98.90
21770;DHT22;11046;49.558;8.674;2023-04-03T07:02:22;3.80;98.80
21770;DHT22;11046;49.558;8.674;2023-04-03T07:05:23;4.10;98.70
21770;DHT22;11046;49.558;8.674;2023-04-03T07:08:24;4.50;98.90
21770;DHT22;11046;49.558;8.674;2023-04-03T07:11:26;4.90;98.90
21770;DHT22;11046;49.558;8.674;2023-04-03T07:14:27;5.30;99.00
21770;DHT22;11046;49.558;8.674;2023-04-03T07:17:28;5.70;98.80
21770;DHT22;11046;49.558;8.674;2023-04-03T07:20:28;6.10;98.60
21770;DHT22;11046;49.558;8.674;2023-04-03T07:23:29;6.30;98.20
21770;DHT22;11046;49.558;8.674;2023-04-03T07:26:30;6.60;98.10
21770;DHT22;11046;49.558;8.674;2023-04-03T07:29:31;6.80;98.00
21770;DHT22;11046;49.558;8.674;2023-04-03T07:32:32;7.10;97.60
21770;DHT22;11046;49.558;8.674;2023-04-03T07:35:33;7.20;97.20
21770;DHT22;11046;49.558;8.674;2023-04-03T07:38:34;7.20;96.90
21770;DHT22;11046;49.558;8.674;2023-04-03T07:41:35;7.30;96.90
21770;DHT22;11046;49.558;8.674;2023-04-03T07:44:36;7.80;96.90
21770;DHT22;11046;49.558;8.674;2023-04-03T07:47:37;8.20;96.30
21770;DHT22;11046;49.558;8.674;2023-04-03T07:50:40;8.70;95.90
21770;DHT22;11046;49.558;8.674;2023-04-03T07:53:41;9.20;95.30
21770;DHT22;11046;49.558;8.674;2023-04-03T07:56:42;9.40;94.30
21770;DHT22;11046;49.558;8.674;2023-04-03T07:59:43;9.30;93.90
21770;DHT22;11046;49.558;8.674;2023-04-03T08:02:44;9.40;93.70
21770;DHT22;11046;49.558;8.674;2023-04-03T08:05:46;9.60;93.50
21770;DHT22;11046;49.558;8.674;2023-04-03T08:08:47;10.00;92.90
21770;DHT22;11046;49.558;8.674;2023-04-03T08:11:48;10.00;92.50
21770;DHT22;11046;49.558;8.674;2023-04-03T08:14:48;10.20;91.20
21770;DHT22;11046;49.558;8.674;2023-04-03T08:17:49;10.20;91.30
21770;DHT22;11046;49.558;8.674;2023-04-03T08:20:51;10.40;91.00
21770;DHT22;11046;49.558;8.674;2023-04-03T08:23:52;10.20;90.00
21770;DHT22;11046;49.558;8.674;2023-04-03T08:26:52;10.10;90.20
21770;DHT22;11046;49.558;8.674;2023-04-03T08:29:53;10.10;88.10
21770;DHT22;11046;49.558;8.674;2023-04-03T08:32:54;10.00;88.70
21770;DHT22;11046;49.558;8.674;2023-04-03T08:35:55;10.20;88.10
21770;DHT22;11046;49.558;8.674;2023-04-03T08:38:56;10.30;87.10
21770;DHT22;11046;49.558;8.674;2023-04-03T08:41:59;10.60;86.50
21770;DHT22;11046;49.558;8.674;2023-04-03T08:45:12;10.90;85.40
21770;DHT22;11046;49.558;8.674;2023-04-03T08:48:21;11.10;84.10
21770;DHT22;11046;49.558;8.674;2023-04-03T08:51:23;11.10;82.90
21770;DHT22;11046;49.558;8.674;2023-04-03T08:54:30;11.20;82.40
21770;DHT22;11046;49.558;8.674;2023-04-03T08:57:40;11.20;80.50
21770;DHT22;11046;49.558;8.674;2023-04-03T09:00:59;11.10;80.10
21770;DHT22;11046;49.558;8.674;2023-04-03T09:04:03;11.30;80.60
21770;DHT22;11046;49.558;8.674;2023-04-03T09:07:17;11.80;81.00
21770;DHT22;11046;49.558;8.674;2023-04-03T09:10:24;12.20;77.80
21770;DHT22;11046;49.558;8.674;2023-04-03T09:13:35;11.90;74.70
21770;DHT22;11046;49.558;8.674;2023-04-03T09:16:58;11.60;76.90
21770;DHT22;11046;49.558;8.674;2023-04-03T09:29:53;11.20;74.90
21770;DHT22;11046;49.558;8.674;2023-04-03T09:32:56;10.90;75.70
21770;DHT22;11046;49.558;8.674;2023-04-03T09:35:57;10.90;75.60
21770;DHT22;11046;49.558;8.674;2023-04-03T09:39:07;10.90;75.70
21770;DHT22;11046;49.558;8.674;2023-04-03T09:42:23;10.80;73.30
21770;DHT22;11046;49.558;8.674;2023-04-03T09:45:32;10.60;73.80
21770;DHT22;11046;49.558;8.674;2023-04-03T09:48:33;10.50;74.40
21770;DHT22;11046;49.558;8.674;2023-04-03T09:51:33;10.40;74.00
21770;DHT22;11046;49.558;8.674;2023-04-03T09:54:37;10.00;73.20
21770;DHT22;11046;49.558;8.674;2023-04-03T09:57:38;9.70;72.90
21770;DHT22;11046;49.558;8.674;2023-04-03T10:00:40;9.70;74.00
21770;DHT22;11046;49.558;8.674;2023-04-03T10:03:40;9.90;74.20
21770;DHT22;11046;49.558;8.674;2023-04-03T10:06:54;10.10;73.70
21770;DHT22;11046;49.558;8.674;2023-04-03T10:09:58;10.90;73.50
21770;DHT22;11046;49.558;8.674;2023-04-03T10:13:16;11.70;72.60
21770;DHT22;11046;49.558;8.674;2023-04-03T10:16:47;12.10;70.50
21770;DHT22;11046;49.558;8.674;2023-04-03T10:29:38;11.70;66.70
21770;DHT22;11046;49.558;8.674;2023-04-03T10:56:07;10.50;66.50
21770;DHT22;11046;49.558;8.674;2023-04-03T11:02:36;9.60;66.80
21770;DHT22;11046;49.558;8.674;2023-04-03T11:05:45;9.60;66.50
21770;DHT22;11046;49.558;8.674;2023-04-03T11:08:57;9.70;66.50
21770;DHT22;11046;49.558;8.674;2023-04-03T11:16:08;10.10;66.60
21770;DHT22;11046;49.558;8.674;2023-04-03T11:19:20;10.50;67.30
21770;DHT22;11046;49.558;8.674;2023-04-03T11:25:33;9.90;65.30
21770;DHT22;11046;49.558;8.674;2023-04-03T11:28:36;10.00;65.40
21770;DHT22;11046;49.558;8.674;2023-04-03T11:35:00;9.80;64.90
21770;DHT22;11046;49.558;8.674;2023-04-03T11:38:04;9.70;65.70
21770;DHT22;11046;49.558;8.674;2023-04-03T11:41:08;9.50;64.80
21770;DHT22;11046;49.558;8.674;2023-04-03T11:44:37;9.40;66.00
21770;DHT22;11046;49.558;8.674;2023-04-03T11:47:49;9.40;66.00
21770;DHT22;11046;49.558;8.674;2023-04-03T11:50:51;9.80;65.60
21770;DHT22;11046;49.558;8.674;2023-04-03T11:53:52;10.00;65.40
21770;DHT22;11046;49.558;8.674;2023-04-03T11:56:53;10.30;65.40
21770;DHT22;11046;49.558;8.674;2023-04-03T11:59:53;10.60;65.70
21770;DHT22;11046;49.558;8.674;2023-04-03T12:02:54;10.80;64.70
21770;DHT22;11046;49.558;8.674;2023-04-03T12:22:18;11.00;63.00
21770;DHT22;11046;49.558;8.674;2023-04-03T12:25:46;10.90;62.60
21770;DHT22;11046;49.558;8.674;2023-04-03T12:28:49;11.10;62.00
21770;DHT22;11046;49.558;8.674;2023-04-03T12:38:37;10.60;60.50
21770;DHT22;11046;49.558;8.674;2023-04-03T12:42:17;10.50;61.90
21770;DHT22;11046;49.558;8.674;2023-04-03T12:45:25;10.30;61.20
21770;DHT22;11046;49.558;8.674;2023-04-03T12:48:29;10.20;61.60
21770;DHT22;11046;49.558;8.674;2023-04-03T12:51:38;10.40;62.40
21770;DHT22;11046;49.558;8.674;2023-04-03T12:54:40;10.60;62.20
21770;DHT22;11046;49.558;8.674;2023-04-03T12:57:41;10.90;63.00
21770;DHT22;11046;49.558;8.674;2023-04-03T13:00:42;11.00;61.90
21770;DHT22;11046;49.558;8.674;2023-04-03T13:03:45;10.90;61.80
21770;DHT22;11046;49.558;8.674;2023-04-03T13:06:47;10.50;61.50
21770;DHT22;11046;49.558;8.674;2023-04-03T13:09:59;10.50;62.50
21770;DHT22;11046;49.558;8.674;2023-04-03T13:13:08;10.80;62.30
21770;DHT22;11046;49.558;8.674;2023-04-03T13:16:10;11.10;62.00
21770;DHT22;11046;49.558;8.674;2023-04-03T13:19:16;11.00;60.70
21770;DHT22;11046;49.558;8.674;2023-04-03T13:22:40;10.70;60.90
21770;DHT22;11046;49.558;8.674;2023-04-03T13:25:45;10.50;60.60
21770;DHT22;11046;49.558;8.674;2023-04-03T13:28:46;10.20;61.80
21770;DHT22;11046;49.558;8.674;2023-04-03T13:31:53;10.20;63.00
21770;DHT22;11046;49.558;8.674;2023-04-03T13:34:54;10.30;63.00
21770;DHT22;11046;49.558;8.674;2023-04-03T13:38:06;10.60;63.60
21770;DHT22;11046;49.558;8.674;2023-04-03T13:41:29;10.80;63.00
21770;DHT22;11046;49.558;8.674;2023-04-03T13:44:37;10.90;60.90
21770;DHT22;11046;49.558;8.674;2023-04-03T13:47:42;10.90;60.20
21770;DHT22;11046;49.558;8.674;2023-04-03T13:56:56;10.50;59.80
21770;DHT22;11046;49.558;8.674;2023-04-03T13:59:57;10.50;59.90
21770;DHT22;11046;49.558;8.674;2023-04-03T14:02:58;10.50;60.00
21770;DHT22;11046;49.558;8.674;2023-04-03T14:05:59;10.90;61.10
21770;DHT22;11046;49.558;8.674;2023-04-03T14:09:06;11.20;59.90
21770;DHT22;11046;49.558;8.674;2023-04-03T14:12:27;11.60;59.70
21770;DHT22;11046;49.558;8.674;2023-04-03T14:15:31;12.20;58.70
21770;DHT22;11046;49.558;8.674;2023-04-03T14:18:34;12.70;58.40
21770;DHT22;11046;49.558;8.674;2023-04-03T14:21:34;12.80;57.10
21770;DHT22;11046;49.558;8.674;2023-04-03T14:24:36;12.90;56.60
21770;DHT22;11046;49.558;8.674;2023-04-03T14:27:39;12.70;56.40
21770;DHT22;11046;49.558;8.674;2023-04-03T14:30:41;12.20;55.20
21770;DHT22;11046;49.558;8.674;2023-04-03T14:33:42;11.80;55.50
21770;DHT22;11046;49.558;8.674;2023-04-03T14:36:45;11.50;56.00
21770;DHT22;11046;49.558;8.674;2023-04-03T14:39:47;11.40;55.90
21770;DHT22;11046;49.558;8.674;2023-04-03T14:42:48;11.20;55.50
21770;DHT22;11046;49.558;8.674;2023-04-03T14:45:49;11.10;55.70
21770;DHT22;11046;49.558;8.674;2023-04-03T14:48:51;11.20;55.60
21770;DHT22;11046;49.558;8.674;2023-04-03T14:51:51;11.10;55.20
21770;DHT22;11046;49.558;8.674;2023-04-03T14:54:54;11.10;55.50
21770;DHT22;11046;49.558;8.674;2023-04-03T14:57:55;11.00;54.80
21770;DHT22;11046;49.558;8.674;2023-04-03T15:00:55;11.00;54.70
21770;DHT22;11046;49.558;8.674;2023-04-03T15:03:56;11.00;54.40
21770;DHT22;11046;49.558;8.674;2023-04-03T15:06:56;11.00;54.10
21770;DHT22;11046;49.558;8.674;2023-04-03T15:09:57;10.80;53.70
21770;DHT22;11046;49.558;8.674;2023-04-03T15:12:58;10.70;53.70
21770;DHT22;11046;49.558;8.674;2023-04-03T15:15:58;10.60;54.40
21770;DHT22;11046;49.558;8.674;2023-04-03T15:18:59;10.50;53.80
21770;DHT22;11046;49.558;8.674;2023-04-03T15:22:00;10.60;53.80
21770;DHT22;11046;49.558;8.674;2023-04-03T15:25:00;10.40;53.20
21770;DHT22;11046;49.558;8.674;2023-04-03T15:28:01;10.30;53.70
21770;DHT22;11046;49.558;8.674;2023-04-03T15:31:02;10.00;53.50
21770;DHT22;11046;49.558;8.674;2023-04-03T15:34:03;9.90;53.90
21770;DHT22;11046;49.558;8.674;2023-04-03T15:37:04;9.80;53.70
21770;DHT22;11046;49.558;8.674;2023-04-03T15:40:05;9.70;53.20
21770;DHT22;11046;49.558;8.674;2023-04-03T15:43:06;9.60;53.60
21770;DHT22;11046;49.558;8.674;2023-04-03T15:46:07;9.40;52.80
21770;DHT22;11046;49.558;8.674;2023-04-03T15:49:08;9.30;52.80
21770;DHT22;11046;49.558;8.674;2023-04-03T15:52:09;9.20;52.80
21770;DHT22;11046;49.558;8.674;2023-04-03T15:55:09;9.30;53.00
21770;DHT22;11046;49.558;8.674;2023-04-03T15:58:10;9.30;53.10
21770;DHT22;11046;49.558;8.674;2023-04-03T16:01:11;9.30;53.10
21770;DHT22;11046;49.558;8.674;2023-04-03T16:04:12;9.20;53.20
21770;DHT22;11046;49.558;8.674;2023-04-03T16:07:14;9.20;53.30
21770;DHT22;11046;49.558;8.674;2023-04-03T16:10:17;9.00;53.30
21770;DHT22;11046;49.558;8.674;2023-04-03T16:13:19;9.00;53.40
21770;DHT22;11046;49.558;8.674;2023-04-03T16:16:21;9.00;53.50
21770;DHT22;11046;49.558;8.674;2023-04-03T16:19:22;8.90;53.70
21770;DHT22;11046;49.558;8.674;2023-04-03T16:22:25;8.70;53.70
21770;DHT22;11046;49.558;8.674;2023-04-03T16:25:26;8.60;53.80
21770;DHT22;11046;49.558;8.674;2023-04-03T16:28:27;8.50;53.80
21770;DHT22;11046;49.558;8.674;2023-04-03T16:31:27;8.50;53.90
21770;DHT22;11046;49.558;8.674;2023-04-03T16:34:28;8.50;53.60
21770;DHT22;11046;49.558;8.674;2023-04-03T16:37:31;8.40;53.80
21770;DHT22;11046;49.558;8.674;2023-04-03T16:40:31;8.40;53.80
21770;DHT22;11046;49.558;8.674;2023-04-03T16:43:34;8.30;53.90
21770;DHT22;11046;49.558;8.674;2023-04-03T16:46:35;8.40;54.00
21770;DHT22;11046;49.558;8.674;2023-04-03T16:49:36;8.40;54.20
21770;DHT22;11046;49.558;8.674;2023-04-03T16:52:37;8.30;54.30
21770;DHT22;11046;49.558;8.674;2023-04-03T16:55:37;8.30;54.20
21770;DHT22;11046;49.558;8.674;2023-04-03T16:58:39;8.30;54.00
21770;DHT22;11046;49.558;8.674;2023-04-03T17:01:40;8.20;54.00
21770;DHT22;11046;49.558;8.674;2023-04-03T17:04:40;8.10;53.90
21770;DHT22;11046;49.558;8.674;2023-04-03T17:07:41;8.00;54.20
21770;DHT22;11046;49.558;8.674;2023-04-03T17:10:42;8.00;54.40
21770;DHT22;11046;49.558;8.674;2023-04-03T17:13:42;7.90;54.10
21770;DHT22;11046;49.558;8.674;2023-04-03T17:16:43;7.90;54.20
21770;DHT22;11046;49.558;8.674;2023-04-03T17:19:44;7.90;54.30
21770;DHT22;11046;49.558;8.674;2023-04-03T17:22:45;7.80;54.40
21770;DHT22;11046;49.558;8.674;2023-04-03T17:25:45;7.70;54.40
21770;DHT22;11046;49.558;8.674;2023-04-03T17:28:46;7.70;54.60
21770;DHT22;11046;49.558;8.674;2023-04-03T17:31:47;7.60;54.60
21770;DHT22;11046;49.558;8.674;2023-04-03T17:34:47;7.60;54.50
21770;DHT22;11046;49.558;8.674;2023-04-03T17:37:48;7.50;54.60
21770;DHT22;11046;49.558;8.674;2023-04-03T17:41:05;7.50;54.70
21770;DHT22;11046;49.558;8.674;2023-04-03T17:44:06;7.30;54.90
21770;DHT22;11046;49.558;8.674;2023-04-03T17:47:06;7.30;55.20
21770;DHT22;11046;49.558;8.674;2023-04-03T17:50:07;7.20;55.30
21770;DHT22;11046;49.558;8.674;2023-04-03T17:53:08;7.20;55.20
21770;DHT22;11046;49.558;8.674;2023-04-03T17:56:15;7.10;55.40
21770;DHT22;11046;49.558;8.674;2023-04-03T17:59:16;7.20;55.30
21770;DHT22;11046;49.558;8.674;2023-04-03T18:02:17;7.10;55.40
21770;DHT22;11046;49.558;8.674;2023-04-03T18:05:17;7.00;55.60
21770;DHT22;11046;49.558;8.674;2023-04-03T18:08:18;6.90;55.60
21770;DHT22;11046;49.558;8.674;2023-04-03T18:11:20;6.90;55.60
21770;DHT22;11046;49.558;8.674;2023-04-03T18:14:24;6.80;55.70
21770;DHT22;11046;49.558;8.674;2023-04-03T18:17:30;6.80;55.80
21770;DHT22;11046;49.558;8.674;2023-04-03T18:20:32;6.70;55.80
21770;DHT22;11046;49.558;8.674;2023-04-03T18:23:34;6.70;55.80
21770;DHT22;11046;49.558;8.674;2023-04-03T18:26:37;6.60;56.00
21770;DHT22;11046;49.558;8.674;2023-04-03T18:29:40;6.50;56.30
21770;DHT22;11046;49.558;8.674;2023-04-03T18:32:42;6.40;56.60
21770;DHT22;11046;49.558;8.674;2023-04-03T18:35:44;6.30;56.70
21770;DHT22;11046;49.558;8.674;2023-04-03T18:38:44;6.20;57.00
21770;DHT22;11046;49.558;8.674;2023-04-03T18:41:46;6.10;57.20
21770;DHT22;11046;49.558;8.674;2023-04-03T18:44:50;5.90;57.60
21770;DHT22;11046;49.558;8.674;2023-04-03T18:47:53;5.80;58.10
21770;DHT22;11046;49.558;8.674;2023-04-03T18:50:54;5.70;58.30
21770;DHT22;11046;49.558;8.674;2023-04-03T18:53:55;5.70;58.50
21770;DHT22;11046;49.558;8.674;2023-04-03T18:56:56;5.60;59.00
21770;DHT22;11046;49.558;8.674;2023-04-03T19:00:00;5.50;59.30
21770;DHT22;11046;49.558;8.674;2023-04-03T19:03:01;5.40;59.70
21770;DHT22;11046;49.558;8.674;2023-04-03T19:06:03;5.30;59.90
21770;DHT22;11046;49.558;8.674;2023-04-03T19:09:05;5.20;60.20
21770;DHT22;11046;49.558;8.674;2023-04-03T19:12:07;5.10;60.20
21770;DHT22;11046;49.558;8.674;2023-04-03T19:15:10;5.00;60.70
21770;DHT22;11046;49.558;8.674;2023-04-03T19:18:11;4.80;61.30
21770;DHT22;11046;49.558;8.674;2023-04-03T19:21:13;4.70;61.80
21770;DHT22;11046;49.558;8.674;2023-04-03T19:24:15;4.70;62.30
21770;DHT22;11046;49.558;8.674;2023-04-03T19:27:17;4.60;62.70
21770;DHT22;11046;49.558;8.674;2023-04-03T19:30:19;4.40;63.00
21770;DHT22;11046;49.558;8.674;2023-04-03T19:33:20;4.30;63.10
21770;DHT22;11046;49.558;8.674;2023-04-03T19:36:20;4.30;63.30
21770;DHT22;11046;49.558;8.674;2023-04-03T19:39:21;4.30;63.20
21770;DHT22;11046;49.558;8.674;2023-04-03T19:42:22;4.30;63.40
21770;DHT22;11046;49.558;8.674;2023-04-03T19:45:23;4.30;63.60
21770;DHT22;11046;49.558;8.674;2023-04-03T19:48:26;4.20;63.70
21770;DHT22;11046;49.558;8.674;2023-04-03T19:51:26;4.20;63.80
21770;DHT22;11046;49.558;8.674;2023-04-03T19:54:28;4.20;63.80
21770;DHT22;11046;49.558;8.674;2023-04-03T19:57:29;4.10;64.00
21770;DHT22;11046;49.558;8.674;2023-04-03T20:00:30;4.00;64.40
21770;DHT22;11046;49.558;8.674;2023-04-03T20:03:32;4.00;64.70
21770;DHT22;11046;49.558;8.674;2023-04-03T20:06:34;4.00;64.90
21770;DHT22;11046;49.558;8.674;2023-04-03T20:09:36;3.90;65.00
21770;DHT22;11046;49.558;8.674;2023-04-03T20:12:37;3.90;65.00
21770;DHT22;11046;49.558;8.674;2023-04-03T20:15:40;3.80;65.20
21770;DHT22;11046;49.558;8.674;2023-04-03T20:18:40;3.80;65.30
21770;DHT22;11046;49.558;8.674;2023-04-03T20:21:41;3.70;65.60
21770;DHT22;11046;49.558;8.674;2023-04-03T20:24:42;3.60;65.80
21770;DHT22;11046;49.558;8.674;2023-04-03T20:27:43;3.60;65.90
21770;DHT22;11046;49.558;8.674;2023-04-03T20:30:49;3.50;66.10
21770;DHT22;11046;49.558;8.674;2023-04-03T20:33:51;3.50;66.10
21770;DHT22;11046;49.558;8.674;2023-04-03T20:36:52;3.50;66.20
21770;DHT22;11046;49.558;8.674;2023-04-03T20:39:53;3.50;66.30
21770;DHT22;11046;49.558;8.674;2023-04-03T20:42:54;3.40;66.50
21770;DHT22;11046;49.558;8.674;2023-04-03T20:45:59;3.40;66.50
21770;DHT22;11046;49.558;8.674;2023-04-03T20:49:01;3.40;66.70
21770;DHT22;11046;49.558;8.674;2023-04-03T20:52:03;3.30;66.70
21770;DHT22;11046;49.558;8.674;2023-04-03T20:55:06;3.30;66.90
21770;DHT22;11046;49.558;8.674;2023-04-03T20:58:09;3.20;67.30
21770;DHT22;11046;49.558;8.674;2023-04-03T21:01:14;3.20;67.30
21770;DHT22;11046;49.558;8.674;2023-04-03T21:04:28;3.10;67.40
21770;DHT22;11046;49.558;8.674;2023-04-03T21:21:52;2.80;69.20
21770;DHT22;11046;49.558;8.674;2023-04-03T21:24:56;2.80;68.40
21770;DHT22;11046;49.558;8.674;2023-04-03T21:27:57;2.80;68.40
21770;DHT22;11046;49.558;8.674;2023-04-03T21:30:59;2.80;68.50
21770;DHT22;11046;49.558;8.674;2023-04-03T21:34:01;2.80;68.60
21770;DHT22;11046;49.558;8.674;2023-04-03T21:37:04;2.70;68.70
21770;DHT22;11046;49.558;8.674;2023-04-03T21:40:06;2.80;68.90
21770;DHT22;11046;49.558;8.674;2023-04-03T21:43:08;2.80;68.80
21770;DHT22;11046;49.558;8.674;2023-04-03T21:46:09;2.90;68.70
21770;DHT22;11046;49.558;8.674;2023-04-03T21:49:10;2.90;68.50
21770;DHT22;11046;49.558;8.674;2023-04-03T21:52:11;2.90;68.40
21770;DHT22;11046;49.558;8.674;2023-04-03T21:55:12;2.80;68.40
21770;DHT22;11046;49.558;8.674;2023-04-03T21:58:15;2.90;68.60
21770;DHT22;11046;49.558;8.674;2023-04-03T22:01:18;2.90;68.60
21770;DHT22;11046;49.558;8.674;2023-04-03T22:04:18;2.90;68.50
21770;DHT22;11046;49.558;8.674;2023-04-03T22:07:19;2.90;68.50
21770;DHT22;11046;49.558;8.674;2023-04-03T22:10:20;2.90;68.60
21770;DHT22;11046;49.558;8.674;2023-04-03T22:13:20;2.90;68.50
21770;DHT22;11046;49.558;8.674;2023-04-03T22:16:21;2.90;68.50
21770;DHT22;11046;49.558;8.674;2023-04-03T22:19:22;2.80;68.40
21770;DHT22;11046;49.558;8.674;2023-04-03T22:22:23;2.80;68.40
21770;DHT22;11046;49.558;8.674;2023-04-03T22:25:24;2.80;68.40
21770;DHT22;11046;49.558;8.674;2023-04-03T22:28:25;2.80;68.60
21770;DHT22;11046;49.558;8.674;2023-04-03T22:31:26;2.80;68.60
21770;DHT22;11046;49.558;8.674;2023-04-03T22:34:27;2.80;68.40
21770;DHT22;11046;49.558;8.674;2023-04-03T22:37:28;2.70;68.50
21770;DHT22;11046;49.558;8.674;2023-04-03T22:40:28;2.60;68.60
21770;DHT22;11046;49.558;8.674;2023-04-03T22:43:30;2.50;68.90
21770;DHT22;11046;49.558;8.674;2023-04-03T22:46:31;2.50;69.00
21770;DHT22;11046;49.558;8.674;2023-04-03T22:49:31;2.50;69.00
21770;DHT22;11046;49.558;8.674;2023-04-03T22:52:32;2.60;68.90
21770;DHT22;11046;49.558;8.674;2023-04-03T22:55:32;2.50;68.90
21770;DHT22;11046;49.558;8.674;2023-04-03T22:58:33;2.50;69.70
21770;DHT22;11046;49.558;8.674;2023-04-03T23:01:34;2.40;68.90
21770;DHT22;11046;49.558;8.674;2023-04-03T23:04:34;2.40;68.90
21770;DHT22;11046;49.558;8.674;2023-04-03T23:07:35;2.40;68.90
21770;DHT22;11046;49.558;8.674;2023-04-03T23:10:36;2.40;68.90
21770;DHT22;11046;49.558;8.674;2023-04-03T23:13:36;2.40;68.90
21770;DHT22;11046;49.558;8.674;2023-04-03T23:16:37;2.40;69.00
21770;DHT22;11046;49.558;8.674;2023-04-03T23:19:37;2.30;68.90
21770;DHT22;11046;49.558;8.674;2023-04-03T23:22:38;2.30;68.80
21770;DHT22;11046;49.558;8.674;2023-04-03T23:25:41;2.30;68.80
21770;DHT22;11046;49.558;8.674;2023-04-03T23:28:41;2.30;68.90
21770;DHT22;11046;49.558;8.674;2023-04-03T23:31:42;2.20;68.90
21770;DHT22;11046;49.558;8.674;2023-04-03T23:34:43;2.20;68.90
21770;DHT22;11046;49.558;8.674;2023-04-03T23:37:43;2.10;69.00
21770;DHT22;11046;49.558;8.674;2023-04-03T23:40:44;2.10;69.20
21770;DHT22;11046;49.558;8.674;2023-04-03T23:43:45;2.00;69.20
21770;DHT22;11046;49.558;8.674;2023-04-03T23:46:46;2.10;69.20
21770;DHT22;11046;49.558;8.674;2023-04-03T23:49:47;2.10;69.20
21770;DHT22;11046;49.558;8.674;2023-04-03T23:52:47;2.00;69.10
21770;DHT22;11046;49.558;8.674;2023-04-03T23:55:48;2.00;69.40
21770;DHT22;11046;49.558;8.674;2023-04-03T23:58:49;2.00;69.40
